Aldine, Texas
Current Conditions -  °F | °C
As of 5:53 AM on Monday 20 Oct 2014 (Local Time) from KIAH Reporting Station
Few Clouds Few Clouds  
Wind Chill: 60°   Ceiling: Unl
Heat Index: 60°   Visibility: 10mi
Dew Point: 57°   Wind: 5mph
Humidity: 90%   Direction: 50°NE
Pressure: 30.01"   Gusts: NA
Location:  29.93°N, 95.38°W
Report Text: KIAH 201053Z 05004KT 10SM FEW250 16/14 A3001 RMK AO2 SLP161 T01560139 $
Loading
Personal Weather Stations






























Interactive Weather Map New forecast layout! Learn more

10-Day Weather Forecast

Advertisements
Track Severe Weather on mobile